Time;durP1;ratioP1;P1;durP2;ratioP2;P2;SDS_P1;SDS_P2;PMS_P1;PMS_P2;Temp;Humidity;BMP_temperature;BMP_pressure;BME280_temperature;BME280_humidity;BME280_pressure;Samples;Min_cycle;Max_cycle;Signal;HPM_P1;HPM_P2
2021/10/13 00:00:10;;;;;;;11.20;8.52;;;;;;;7.67;78.05;100106.09;5078924;28;20032;-55
2021/10/13 00:02:35;;;;;;;12.45;8.18;;;;;;;7.61;78.08;100102.03;5077801;28;20494;-60
2021/10/13 00:05:01;;;;;;;12.75;7.80;;;;;;;7.60;78.21;100102.41;5078824;28;20112;-55
2021/10/13 00:07:26;;;;;;;13.63;7.90;;;;;;;7.59;78.09;100101.59;5078603;28;20040;-54
2021/10/13 00:09:51;;;;;;;13.30;9.00;;;;;;;7.58;78.06;100100.00;5078481;28;20462;-56
2021/10/13 00:12:17;;;;;;;15.23;9.07;;;;;;;7.56;78.11;100101.59;5078800;28;20382;-53
2021/10/13 00:14:43;;;;;;;13.75;9.02;;;;;;;7.55;78.09;100099.97;5078624;28;20033;-62
2021/10/13 00:17:09;;;;;;;13.45;9.18;;;;;;;7.56;78.13;100101.59;5078475;28;20053;-55
2021/10/13 00:19:34;;;;;;;12.25;8.82;;;;;;;7.55;78.33;100094.41;5077414;28;20043;-60
2021/10/13 00:21:59;;;;;;;14.10;8.82;;;;;;;7.52;78.23;100093.19;5077648;28;20111;-60
2021/10/13 00:24:25;;;;;;;19.17;9.23;;;;;;;7.52;78.23;100089.59;5078393;28;20103;-54
2021/10/13 00:26:50;;;;;;;11.75;8.60;;;;;;;7.51;78.27;100090.78;5078434;28;20017;-55
2021/10/13 00:29:15;;;;;;;12.45;9.18;;;;;;;7.48;78.50;100081.16;5078284;28;20059;-54
2021/10/13 00:31:41;;;;;;;11.07;8.82;;;;;;;7.47;78.24;100085.16;5078140;28;20108;-60
2021/10/13 00:34:06;;;;;;;13.60;9.63;;;;;;;7.47;78.01;100096.34;5068273;28;20052;-61
2021/10/13 00:36:32;;;;;;;15.90;9.85;;;;;;;7.43;78.18;100098.31;5072705;28;20052;-55
2021/10/13 00:38:57;;;;;;;12.15;9.27;;;;;;;7.40;78.41;100094.31;5077717;28;20071;-60
2021/10/13 00:41:23;;;;;;;16.42;8.98;;;;;;;7.39;77.97;100094.66;5078262;28;20472;-56
2021/10/13 00:43:48;;;;;;;10.65;8.25;;;;;;;7.35;78.27;100088.25;5077953;28;20021;-55
2021/10/13 00:46:13;;;;;;;16.98;9.32;;;;;;;7.33;78.22;100088.66;5083159;28;20051;-55
2021/10/13 00:48:39;;;;;;;15.45;8.85;;;;;;;7.32;78.57;100086.25;5098427;28;20064;-55
2021/10/13 00:51:04;;;;;;;12.98;8.88;;;;;;;7.29;78.85;100084.22;5097756;28;20081;-55
2021/10/13 00:53:30;;;;;;;14.07;9.23;;;;;;;7.25;78.42;100086.19;5097196;28;20027;-53
2021/10/13 00:55:56;;;;;;;14.50;9.32;;;;;;;7.23;78.65;100077.41;5097956;28;20027;-51
2021/10/13 00:58:23;;;;;;;9.98;8.27;;;;;;;7.20;78.35;100078.97;5098376;28;20031;-60
2021/10/13 01:00:56;;;;;;;14.70;9.93;;;;;;;7.16;78.92;100077.34;5098271;28;20023;-55
2021/10/13 01:03:33;;;;;;;12.52;9.60;;;;;;;7.13;78.93;100074.13;5098313;28;20035;-55
2021/10/13 01:06:14;;;;;;;15.15;9.35;;;;;;;7.10;78.88;100077.69;5097272;28;20104;-53
2021/10/13 01:08:50;;;;;;;15.05;8.90;;;;;;;7.09;79.19;100081.66;5097996;28;20100;-52
2021/10/13 01:11:29;;;;;;;14.65;9.90;;;;;;;7.07;79.08;100077.66;5083809;28;20024;-53
2021/10/13 01:14:09;;;;;;;15.82;9.75;;;;;;;7.06;78.98;100079.66;5097709;28;20024;-52
2021/10/13 01:16:50;;;;;;;17.23;9.32;;;;;;;7.06;79.04;100076.84;5085735;28;20016;-54
2021/10/13 01:19:33;;;;;;;12.50;9.20;;;;;;;7.06;79.41;100079.66;5097530;28;20024;-54
2021/10/13 01:22:23;;;;;;;16.92;8.95;;;;;;;7.06;79.82;100084.44;5097451;28;20031;-60
2021/10/13 01:25:10;;;;;;;16.17;9.80;;;;;;;7.04;79.62;100075.63;5097566;28;20016;-55
2021/10/13 01:27:38;;;;;;;11.35;8.52;;;;;;;7.01;79.67;100077.22;5097792;28;20375;-54
2021/10/13 01:30:06;;;;;;;14.00;9.35;;;;;;;6.98;79.53;100075.19;5097282;28;20024;-53
2021/10/13 01:32:35;;;;;;;13.85;9.35;;;;;;;6.97;79.04;100087.56;5097293;28;20081;-55
2021/10/13 01:35:02;;;;;;;14.10;9.63;;;;;;;6.95;79.22;100077.97;5096898;28;20028;-55
2021/10/13 01:37:41;;;;;;;15.35;9.90;;;;;;;6.93;79.27;100078.34;5097663;28;20031;-56
2021/10/13 01:40:08;;;;;;;13.93;9.88;;;;;;;6.91;79.29;100080.72;5096835;28;20020;-52
2021/10/13 01:42:36;;;;;;;14.60;9.82;;;;;;;6.91;79.21;100082.72;5079354;28;20057;-52
2021/10/13 01:45:02;;;;;;;14.85;9.88;;;;;;;6.90;79.44;100081.91;5096814;28;20413;-56
2021/10/13 01:47:32;;;;;;;17.73;10.00;;;;;;;6.87;79.55;100091.06;5096833;28;20048;-55
2021/10/13 01:49:59;;;;;;;12.13;8.95;;;;;;;6.87;79.40;100084.69;5096910;28;20035;-60
2021/10/13 01:52:27;;;;;;;12.85;8.60;;;;;;;6.85;79.39;100084.22;5097329;28;20103;-55
2021/10/13 01:54:59;;;;;;;13.55;9.23;;;;;;;6.80;79.52;100077.81;5096958;28;20115;-50
2021/10/13 01:57:26;;;;;;;14.65;8.60;;;;;;;6.81;79.73;100087.00;5079315;28;20303;-52
2021/10/13 01:59:56;;;;;;;12.85;9.15;;;;;;;6.79;79.61;100092.16;5097144;28;20353;-55
2021/10/13 02:02:27;;;;;;;14.27;9.23;;;;;;;6.76;79.54;100090.94;5096808;28;20015;-55
2021/10/13 02:04:55;;;;;;;13.15;9.45;;;;;;;6.75;79.51;100091.34;5096879;28;20024;-54
2021/10/13 02:07:21;;;;;;;13.10;9.52;;;;;;;6.72;79.63;100092.09;5078578;28;20055;-60
2021/10/13 02:09:48;;;;;;;14.82;9.35;;;;;;;6.72;79.79;100094.91;5096754;28;20048;-56
2021/10/13 02:12:16;;;;;;;14.05;8.68;;;;;;;6.72;79.62;100097.69;5096372;28;20026;-55
2021/10/13 02:14:43;;;;;;;15.80;10.13;;;;;;;6.69;79.70;100085.31;5096579;28;20073;-54
2021/10/13 02:17:09;;;;;;;17.83;9.75;;;;;;;6.68;79.81;100088.47;5096393;28;20024;-54
2021/10/13 02:19:34;;;;;;;16.27;9.20;;;;;;;6.67;79.68;100089.66;5096348;28;20016;-61
2021/10/13 02:22:03;;;;;;;14.73;9.55;;;;;;;6.67;79.83;100095.25;5096290;28;20315;-60
2021/10/13 02:24:50;;;;;;;14.70;9.65;;;;;;;6.62;79.53;100093.63;5096360;28;20023;-51
2021/10/13 02:27:29;;;;;;;19.58;10.13;;;;;;;6.59;79.55;100096.38;5095810;28;20108;-61
2021/10/13 02:29:55;;;;;;;12.05;8.95;;;;;;;6.56;79.54;100094.31;5096513;28;20315;-55
2021/10/13 02:32:20;;;;;;;17.77;10.20;;;;;;;6.51;79.51;100092.69;5096240;28;20031;-61
2021/10/13 02:34:45;;;;;;;14.60;9.32;;;;;;;6.47;79.49;100098.22;5095817;28;20032;-60
2021/10/13 02:37:11;;;;;;;14.13;9.43;;;;;;;6.46;79.51;100091.03;5096118;28;20024;-62
2021/10/13 02:39:36;;;;;;;12.80;9.65;;;;;;;6.45;79.47;100099.81;5077972;28;20024;-60
2021/10/13 02:42:03;;;;;;;15.30;10.02;;;;;;;6.44;79.88;100106.56;5095892;28;20062;-51
2021/10/13 02:44:28;;;;;;;13.63;9.27;;;;;;;6.41;79.88;100099.78;5096417;28;20301;-54
2021/10/13 02:47:01;;;;;;;15.05;9.70;;;;;;;6.38;79.68;100100.53;5077670;28;20039;-52
2021/10/13 02:49:52;;;;;;;18.48;10.10;;;;;;;6.37;79.69;100101.72;5079129;28;20032;-55
2021/10/13 02:52:20;;;;;;;14.98;9.63;;;;;;;6.35;79.50;100094.91;5082462;28;20016;-53
2021/10/13 02:54:56;;;;;;;15.63;9.35;;;;;;;6.31;79.58;100088.50;5096130;28;20024;-52
2021/10/13 02:57:27;;;;;;;17.88;10.00;;;;;;;6.27;79.32;100091.22;5082264;28;20031;-54
2021/10/13 02:59:52;;;;;;;14.02;9.73;;;;;;;6.26;79.54;100100.78;5095728;28;20048;-50
2021/10/13 03:02:26;;;;;;;14.88;9.98;;;;;;;6.22;79.57;100091.56;5095650;28;20329;-54
2021/10/13 03:04:56;;;;;;;21.15;10.88;;;;;;;6.23;79.36;100097.94;5078275;28;20411;-56
2021/10/13 03:07:27;;;;;;;16.88;9.60;;;;;;;6.22;79.63;100104.72;5095661;28;20306;-61
2021/10/13 03:09:59;;;;;;;16.23;9.20;;;;;;;6.21;79.76;100106.69;5095745;28;20097;-60
2021/10/13 03:12:30;;;;;;;17.70;10.15;;;;;;;6.20;79.77;100110.66;5095447;28;20403;-62
2021/10/13 03:14:57;;;;;;;15.50;10.37;;;;;;;6.20;79.69;100110.66;5095235;28;20032;-61
2021/10/13 03:17:23;;;;;;;17.08;10.55;;;;;;;6.21;80.06;100112.28;5077542;28;20559;-60
2021/10/13 03:19:50;;;;;;;15.32;11.15;;;;;;;6.20;80.41;100119.84;5095809;28;20066;-60
2021/10/13 03:22:17;;;;;;;14.95;10.68;;;;;;;6.20;80.51;100113.47;5095412;28;20034;-60
2021/10/13 03:24:43;;;;;;;17.35;10.75;;;;;;;6.18;80.34;100113.03;5095113;28;20407;-60
2021/10/13 03:27:08;;;;;;;20.40;10.80;;;;;;;6.13;80.31;100111.41;5088960;28;20032;-55
2021/10/13 03:29:41;;;;;;;17.88;11.60;;;;;;;6.15;80.42;100119.38;5095235;28;20461;-61
2021/10/13 03:32:07;;;;;;;15.85;10.43;;;;;;;6.17;80.72;100123.41;5095308;28;20020;-61
2021/10/13 03:34:33;;;;;;;16.30;10.63;;;;;;;6.14;80.57;100121.38;5077292;28;20415;-60
2021/10/13 03:36:58;;;;;;;17.88;10.85;;;;;;;6.14;80.32;100126.97;5095366;28;20065;-60
2021/10/13 03:39:23;;;;;;;16.75;10.45;;;;;;;6.12;80.53;100126.53;5095374;28;20028;-60
2021/10/13 03:41:49;;;;;;;14.93;10.05;;;;;;;6.07;80.77;100121.28;5095375;28;20024;-60
2021/10/13 03:44:14;;;;;;;17.10;10.82;;;;;;;6.06;80.42;100116.91;5057274;28;20120;-61
2021/10/13 03:46:40;;;;;;;17.08;10.35;;;;;;;6.04;80.57;100119.25;5091519;28;20040;-61
2021/10/13 03:49:05;;;;;;;15.27;9.82;;;;;;;6.02;80.79;100126.38;5095296;28;20078;-61
2021/10/13 03:51:31;;;;;;;15.60;9.77;;;;;;;6.01;81.04;100116.41;5092247;28;20028;-54
2021/10/13 03:53:56;;;;;;;15.73;10.40;;;;;;;6.01;81.15;100125.56;5088867;28;20324;-55
2021/10/13 03:56:21;;;;;;;16.77;10.77;;;;;;;5.99;81.30;100122.34;5091670;28;20016;-61
2021/10/13 03:58:47;;;;;;;14.45;10.55;;;;;;;6.01;81.39;100124.75;5091335;28;20016;-61
2021/10/13 04:01:13;;;;;;;17.90;10.98;;;;;;;6.00;81.55;100120.38;5091466;28;20051;-50
2021/10/13 04:03:39;;;;;;;17.60;11.45;;;;;;;6.00;81.29;100131.53;5091394;28;20445;-56
2021/10/13 04:06:06;;;;;;;13.27;9.77;;;;;;;6.00;81.50;100128.75;5089203;28;20111;-60
